Stead, Nevada
Current Conditions -  °F | °C
As of 4:35 AM on Friday 31 Oct 2014 (Local Time) from KRTS Reporting Station
Clear Clear  
Wind Chill: 50°   Ceiling: Unl
Heat Index: 50°   Visibility: 10mi
Dew Point: 28°   Wind: 10mph
Humidity: 43%   Direction: 300°WNW
Pressure: 29.9"   Gusts: 16mph
Location:  39.7378°N, 119.889°W
Report Text: KRTS 311135Z AUTO 30009G14KT 10SM CLR 10/M02 A2990 RMK AO2
Loading
Personal Weather Stations






























Interactive Weather Map
Tropical Storm Tracking
New forecast layout! Learn more

10-Day Weather Forecast

Advertisements
Track Severe Weather on mobile